Time;durP1;ratioP1;P1;durP2;ratioP2;P2;SDS_P1;SDS_P2;PMS_P1;PMS_P2;Temp;Humidity;BMP_temperature;BMP_pressure;BME280_temperature;BME280_humidity;BME280_pressure;Samples;Min_cycle;Max_cycle;Signal;HPM_P1;HPM_P2
2022/10/22 00:01:01;;;;;;;33.25;15.28;;;;;;;1.61;99.79;99966.76;1735655;81;20997;-75
2022/10/22 00:03:29;;;;;;;34.27;13.28;;;;;;;1.62;99.87;99969.75;1735892;81;20971;-76
2022/10/22 00:05:56;;;;;;;32.88;14.90;;;;;;;1.64;99.87;99967.09;1732320;81;21016;-76
2022/10/22 00:08:23;;;;;;;33.85;15.48;;;;;;;1.68;99.97;99965.23;1742530;82;21041;-75
2022/10/22 00:10:51;;;;;;;26.30;13.48;;;;;;;1.69;99.78;99960.11;1727325;81;21559;-76
2022/10/22 00:13:18;;;;;;;31.73;14.73;;;;;;;1.73;99.59;99957.20;1722216;82;21034;-76
2022/10/22 00:15:46;;;;;;;37.17;14.65;;;;;;;1.76;99.29;99947.20;1707375;82;21505;-76
2022/10/22 00:18:13;;;;;;;28.85;12.73;;;;;;;1.77;99.21;99946.95;1732981;82;21002;-76
2022/10/22 00:20:40;;;;;;;29.15;13.80;;;;;;;1.78;99.08;99949.94;1739398;82;20931;-75
2022/10/22 00:23:07;;;;;;;28.57;13.58;;;;;;;1.80;98.97;99936.16;1735513;82;21552;-75
2022/10/22 00:25:34;;;;;;;28.85;14.05;;;;;;;1.79;98.83;99931.81;1742714;82;21489;-75
2022/10/22 00:28:02;;;;;;;30.52;13.00;;;;;;;1.80;99.37;99930.20;1731970;82;21484;-75
2022/10/22 00:30:28;;;;;;;28.52;13.30;;;;;;;1.81;98.92;99928.32;1733693;82;20911;-76
2022/10/22 00:32:56;;;;;;;28.50;13.20;;;;;;;1.83;98.76;99922.13;1739569;82;20895;-75
2022/10/22 00:35:22;;;;;;;25.70;13.35;;;;;;;1.83;98.42;99908.05;1740238;82;21777;-76
2022/10/22 00:37:49;;;;;;;25.32;12.63;;;;;;;1.83;98.09;99909.41;1688597;84;21085;-76
2022/10/22 00:40:16;;;;;;;27.58;12.70;;;;;;;1.82;97.94;99910.48;1675706;84;20941;-76
2022/10/22 00:42:42;;;;;;;27.90;12.23;;;;;;;1.82;97.65;99915.08;1675505;85;21009;-77
2022/10/22 00:45:14;;;;;;;27.70;12.18;;;;;;;1.80;97.54;99907.20;1667716;85;21074;-76
2022/10/22 00:48:10;;;;;;;27.95;13.15;;;;;;;1.79;97.35;99905.56;1670595;85;21949;-77
2022/10/22 00:51:02;;;;;;;26.33;12.78;;;;;;;1.78;97.33;99906.63;1728169;82;20993;-78
2022/10/22 00:53:40;;;;;;;24.75;12.78;;;;;;;1.76;97.51;99899.30;1729031;82;21014;-78
2022/10/22 00:56:06;;;;;;;22.32;12.13;;;;;;;1.72;97.67;99886.00;1709433;82;21486;-77
2022/10/22 00:58:35;;;;;;;24.07;13.05;;;;;;;1.70;97.50;99877.31;1719613;82;20986;-77
2022/10/22 01:01:02;;;;;;;33.42;12.28;;;;;;;1.69;97.59;99887.03;1688564;84;21463;-75
2022/10/22 01:03:28;;;;;;;20.77;10.78;;;;;;;1.66;97.56;99889.70;1646846;84;20896;-75
2022/10/22 01:06:01;;;;;;;28.23;12.58;;;;;;;1.64;97.51;99883.19;1689197;84;20955;-74
2022/10/22 01:09:00;;;;;;;36.63;12.73;;;;;;;1.64;97.62;99875.60;1671202;84;21073;-75
2022/10/22 01:11:50;;;;;;;23.77;12.10;;;;;;;1.62;97.56;99883.97;1688647;84;20904;-75
2022/10/22 01:14:45;;;;;;;21.37;11.48;;;;;;;1.61;97.51;99877.45;1689450;84;21215;-75
2022/10/22 01:17:24;;;;;;;25.20;12.25;;;;;;;1.57;97.54;99870.91;1689461;84;20979;-74
2022/10/22 01:20:24;;;;;;;28.47;12.55;;;;;;;1.53;97.59;99857.05;1688258;84;20865;-75
2022/10/22 01:23:45;;;;;;;25.85;11.95;;;;;;;1.49;97.71;99858.61;1700302;82;20922;-73
2022/10/22 01:26:33;;;;;;;21.82;11.55;;;;;;;1.46;97.78;99857.76;1707034;82;21006;-75
2022/10/22 01:29:19;;;;;;;27.13;11.88;;;;;;;1.40;97.87;99863.34;1700013;83;21171;-75
2022/10/22 01:31:54;;;;;;;25.00;11.50;;;;;;;1.36;98.10;99860.84;1692718;83;21007;-74
2022/10/22 01:34:21;;;;;;;24.82;11.80;;;;;;;1.31;98.22;99853.47;1720250;82;20951;-76
2022/10/22 01:36:47;;;;;;;26.23;11.90;;;;;;;1.26;98.54;99862.86;1687771;84;20943;-76
2022/10/22 01:39:14;;;;;;;27.80;11.63;;;;;;;1.23;98.75;99870.94;1714142;82;21041;-76
2022/10/22 01:41:44;;;;;;;29.23;12.40;;;;;;;1.22;98.83;99865.23;1721030;81;21118;-76
2022/10/22 01:44:34;;;;;;;23.83;11.53;;;;;;;1.20;98.94;99853.84;1695525;83;21025;-76
2022/10/22 01:47:13;;;;;;;24.98;11.63;;;;;;;1.19;99.07;99852.20;1702430;83;21426;-77
2022/10/22 01:49:50;;;;;;;23.92;10.50;;;;;;;1.18;99.22;99842.45;1711199;82;20982;-77
2022/10/22 01:52:46;;;;;;;22.82;9.93;;;;;;;1.14;99.34;99835.94;1702226;82;20958;-76
2022/10/22 01:55:30;;;;;;;21.87;10.35;;;;;;;1.14;99.44;99829.70;1716484;83;21304;-77
2022/10/22 01:58:30;;;;;;;24.45;10.88;;;;;;;1.13;99.66;99832.95;1694706;82;21497;-77
2022/10/22 02:01:18;;;;;;;24.27;11.57;;;;;;;1.14;99.85;99829.17;1699917;83;21566;-77
2022/10/22 02:03:53;;;;;;;19.77;10.45;;;;;;;1.16;100.00;99837.01;1699576;83;20911;-77
2022/10/22 02:06:21;;;;;;;26.70;11.15;;;;;;;1.20;100.00;99842.20;1708401;82;21002;-75
2022/10/22 02:08:47;;;;;;;24.92;10.95;;;;;;;1.24;100.00;99843.35;1696934;83;21110;-76
2022/10/22 02:11:14;;;;;;;20.70;11.65;;;;;;;1.27;100.00;99845.03;1720032;83;20911;-75
2022/10/22 02:13:46;;;;;;;24.02;10.72;;;;;;;1.32;100.00;99846.99;1724952;82;20911;-76
2022/10/22 02:16:17;;;;;;;24.75;11.25;;;;;;;1.36;99.83;99841.91;1724377;82;21015;-76
2022/10/22 02:18:45;;;;;;;19.83;10.13;;;;;;;1.39;99.54;99840.06;1725321;83;20955;-76
2022/10/22 02:21:12;;;;;;;25.88;11.43;;;;;;;1.38;99.33;99838.42;1724980;82;21792;-77
2022/10/22 02:23:38;;;;;;;20.97;10.20;;;;;;;1.39;99.15;99832.77;1708621;82;21592;-76
2022/10/22 02:26:34;;;;;;;21.52;10.60;;;;;;;1.38;99.10;99827.06;1725002;83;20999;-75
2022/10/22 02:29:26;;;;;;;29.32;11.30;;;;;;;1.37;99.13;99823.26;1713139;82;20947;-77
2022/10/22 02:31:53;;;;;;;;;;;;;;;1.36;99.08;99831.09;1684657;84;21014;-77
2022/10/22 02:34:22;;;;;;;23.95;10.70;;;;;;;1.33;98.98;99830.52;1690969;82;22025;-77
2022/10/22 02:36:50;;;;;;;23.60;10.72;;;;;;;1.32;99.00;99829.41;1692581;84;21014;-76
2022/10/22 02:39:18;;;;;;;27.42;10.48;;;;;;;1.30;98.91;99826.95;1693447;84;20978;-77
2022/10/22 02:41:44;;;;;;;18.75;9.78;;;;;;;1.28;98.87;99820.16;1662707;85;20986;-76
2022/10/22 02:44:12;;;;;;;20.35;10.05;;;;;;;1.24;98.86;99812.25;1663281;85;20955;-76
2022/10/22 02:46:38;;;;;;;20.82;10.90;;;;;;;1.20;99.01;99817.34;1672847;84;21872;-76
2022/10/22 02:49:05;;;;;;;22.52;10.75;;;;;;;1.17;99.13;99806.20;1699596;84;21067;-75
2022/10/22 02:51:32;;;;;;;22.05;10.30;;;;;;;1.13;99.36;99803.20;1686445;84;20864;-78
2022/10/22 02:53:59;;;;;;;25.43;11.63;;;;;;;1.12;99.62;99804.27;1676740;84;21457;-77
2022/10/22 02:56:25;;;;;;;24.32;10.28;;;;;;;1.11;99.82;99808.03;1672353;84;21086;-78
2022/10/22 02:58:51;;;;;;;20.90;10.63;;;;;;;1.12;99.89;99808.32;1654101;85;21123;-77
2022/10/22 03:01:18;;;;;;;23.00;11.15;;;;;;;1.12;99.93;99801.56;1682013;85;20947;-74
2022/10/22 03:03:46;;;;;;;18.75;9.85;;;;;;;1.12;100.00;99798.86;1679687;83;21109;-75
2022/10/22 03:06:12;;;;;;;21.35;10.90;;;;;;;1.12;100.00;99789.39;1708819;82;21047;-75
2022/10/22 03:08:40;;;;;;;24.35;11.50;;;;;;;1.12;100.00;99788.04;1708240;83;20987;-80
2022/10/22 03:11:08;;;;;;;22.17;10.82;;;;;;;1.12;100.00;99783.98;1711879;82;21495;-74
2022/10/22 03:13:36;;;;;;;23.60;10.88;;;;;;;1.14;100.00;99787.80;1712665;82;21504;-73
2022/10/22 03:16:04;;;;;;;25.90;10.78;;;;;;;1.15;100.00;99782.67;1675196;84;20979;-74
2022/10/22 03:18:32;;;;;;;25.25;11.30;;;;;;;1.17;100.00;99777.80;1712569;83;20900;-72
2022/10/22 03:21:27;;;;;;;24.18;10.75;;;;;;;1.17;100.00;99775.92;1688995;84;20896;-72
2022/10/22 03:23:54;;;;;;;22.37;10.63;;;;;;;1.19;100.00;99777.84;1691676;83;21330;-74
2022/10/22 03:26:20;;;;;;;23.83;10.15;;;;;;;1.16;100.00;99768.05;1687775;84;21480;-71
2022/10/22 03:28:47;;;;;;;20.00;10.50;;;;;;;1.14;100.00;99768.33;1703764;83;20932;-77
2022/10/22 03:31:14;;;;;;;24.15;11.12;;;;;;;1.15;100.00;99769.16;1700559;83;20962;-75
2022/10/22 03:33:42;;;;;;;21.35;11.08;;;;;;;1.15;100.00;99771.85;1673606;84;20868;-74
2022/10/22 03:36:09;;;;;;;20.70;10.95;;;;;;;1.14;100.00;99772.92;1692310;84;21161;-75
2022/10/22 03:38:36;;;;;;;23.40;9.85;;;;;;;1.15;100.00;99773.20;1662397;85;20981;-70
2022/10/22 03:41:03;;;;;;;23.07;10.88;;;;;;;1.17;100.00;99767.80;1668320;84;21073;-71
2022/10/22 03:43:31;;;;;;;21.27;10.15;;;;;;;1.17;100.00;99769.16;1658696;85;21180;-69
2022/10/22 03:45:57;;;;;;;23.50;10.53;;;;;;;1.17;100.00;99758.34;1647448;84;20999;-84
2022/10/22 03:48:24;;;;;;;24.37;10.63;;;;;;;1.16;100.00;99765.34;1696272;83;21782;-74
2022/10/22 03:50:51;;;;;;;25.62;10.95;;;;;;;1.17;100.00;99760.23;1698834;84;20920;-70
2022/10/22 03:53:18;;;;;;;24.60;11.78;;;;;;;1.19;100.00;99763.50;1676731;85;20984;-72
2022/10/22 03:55:44;;;;;;;24.05;10.93;;;;;;;1.20;100.00;99759.73;1682311;85;20959;-69
2022/10/22 03:58:11;;;;;;;24.40;10.98;;;;;;;1.21;100.00;99759.48;1670379;85;21058;-71
2022/10/22 04:00:38;;;;;;;22.35;10.32;;;;;;;1.23;100.00;99763.28;1691425;84;21180;-72
2022/10/22 04:03:04;;;;;;;27.73;10.63;;;;;;;1.23;100.00;99764.64;1650148;85;21551;-69
2022/10/22 04:05:33;;;;;;;19.10;9.73;;;;;;;1.25;100.00;99762.50;1698739;84;21516;-74
2022/10/22 04:07:59;;;;;;;22.17;9.88;;;;;;;1.25;100.00;99763.86;1671425;85;21000;-70
2022/10/22 04:10:26;;;;;;;24.20;10.35;;;;;;;1.25;100.00;99759.27;1672475;85;20979;-73
2022/10/22 04:12:54;;;;;;;17.70;9.68;;;;;;;1.26;100.00;99756.03;1698545;84;21063;-72
2022/10/22 04:15:21;;;;;;;23.90;10.20;;;;;;;1.28;100.00;99747.95;1661215;85;21011;-75
2022/10/22 04:17:47;;;;;;;20.25;9.20;;;;;;;1.30;100.00;99751.22;1670789;84;21039;-68
2022/10/22 04:20:16;;;;;;;22.62;10.05;;;;;;;1.32;100.00;99735.56;1676475;85;21035;-73
2022/10/22 04:22:44;;;;;;;22.77;10.08;;;;;;;1.37;100.00;99736.70;1676647;85;20948;-74
2022/10/22 04:25:11;;;;;;;19.52;9.98;;;;;;;1.39;100.00;99727.80;1673457;85;21149;-73
2022/10/22 04:27:38;;;;;;;21.23;10.30;;;;;;;1.41;100.00;99712.95;1700803;84;20892;-72
2022/10/22 04:30:09;;;;;;;17.65;9.15;;;;;;;1.45;100.00;99724.91;1672112;85;21046;-72
2022/10/22 04:32:35;;;;;;;20.90;10.43;;;;;;;1.47;100.00;99720.06;1700160;84;21059;-72
2022/10/22 04:35:02;;;;;;;22.65;9.78;;;;;;;1.48;100.00;99713.58;1664351;85;21438;-70
2022/10/22 04:37:31;;;;;;;17.07;8.73;;;;;;;1.50;100.00;99706.03;1698985;83;21854;-69
2022/10/22 04:39:58;;;;;;;22.60;9.85;;;;;;;1.52;100.00;99695.77;1683516;84;20885;-75
2022/10/22 04:42:24;;;;;;;18.67;9.95;;;;;;;1.55;100.00;99694.45;1688998;84;20999;-70
2022/10/22 04:44:51;;;;;;;18.62;8.83;;;;;;;1.58;100.00;99691.24;1688280;84;20955;-69
2022/10/22 04:47:17;;;;;;;20.10;8.90;;;;;;;1.60;100.00;99699.92;1686467;84;21043;-70
2022/10/22 04:49:45;;;;;;;18.23;9.20;;;;;;;1.62;100.00;99693.73;1733476;82;22422;-70
2022/10/22 04:52:12;;;;;;;19.85;9.03;;;;;;;1.65;100.00;99695.92;1689633;83;21409;-71
2022/10/22 04:54:40;;;;;;;20.25;9.38;;;;;;;1.67;99.94;99698.38;1691949;84;21403;-73
2022/10/22 04:57:07;;;;;;;19.77;9.30;;;;;;;1.71;99.83;99698.16;1687508;83;21531;-74
2022/10/22 04:59:34;;;;;;;23.80;9.83;;;;;;;1.75;99.61;99704.66;1689052;84;21000;-78
2022/10/22 05:02:00;;;;;;;17.50;9.15;;;;;;;1.78;99.35;99705.51;1690611;83;21888;-77
2022/10/22 05:04:27;;;;;;;25.97;9.68;;;;;;;1.83;99.19;99708.27;1709880;83;21618;-77
2022/10/22 05:06:55;;;;;;;23.02;9.70;;;;;;;1.86;99.12;99707.77;1686179;84;21550;-78
2022/10/22 05:09:21;;;;;;;17.05;8.93;;;;;;;1.91;98.87;99699.70;1701702;83;20994;-77
2022/10/22 05:11:51;;;;;;;23.07;9.73;;;;;;;1.97;98.84;99706.80;1690298;83;21733;-78
2022/10/22 05:14:20;;;;;;;27.62;10.25;;;;;;;2.04;98.55;99716.08;1690947;82;21156;-77
2022/10/22 05:16:47;;;;;;;22.85;9.08;;;;;;;2.12;98.41;99714.26;1695423;84;20998;-79
2022/10/22 05:19:22;;;;;;;26.50;10.43;;;;;;;2.19;98.30;99718.93;1694913;84;21089;-78
2022/10/22 05:21:52;;;;;;;33.53;13.58;;;;;;;2.25;98.08;99716.02;1672687;84;21141;-78
2022/10/22 05:24:20;;;;;;;29.63;13.55;;;;;;;2.32;97.59;99703.58;1681788;83;21022;-77
2022/10/22 05:26:49;;;;;;;38.85;20.37;;;;;;;2.37;97.26;99696.86;1670982;84;21080;-78
2022/10/22 05:29:17;;;;;;;33.28;20.08;;;;;;;2.42;97.33;99702.31;1659930;85;20999;-77
2022/10/22 05:31:43;;;;;;;33.58;17.37;;;;;;;2.49;97.08;99707.52;1688304;82;21039;-77
2022/10/22 05:34:10;;;;;;;26.65;16.70;;;;;;;2.53;96.91;99707.28;1709917;82;20947;-76
2022/10/22 05:36:36;;;;;;;31.57;17.40;;;;;;;2.57;96.17;99700.27;1687920;84;21089;-76
2022/10/22 05:39:03;;;;;;;37.48;23.60;;;;;;;2.61;96.17;99693.25;1684940;83;21550;-76
2022/10/22 05:41:30;;;;;;;26.12;15.15;;;;;;;2.64;95.60;99696.27;1666345;86;21002;-76
2022/10/22 05:43:57;;;;;;;22.87;10.80;;;;;;;2.67;95.45;99694.11;1663269;84;21039;-77
2022/10/22 05:46:28;;;;;;;19.07;10.82;;;;;;;2.68;95.12;99690.32;1718767;82;21074;-78
2022/10/22 05:49:00;;;;;;;24.18;12.35;;;;;;;2.69;94.86;99686.53;1722216;81;21150;-80
2022/10/22 05:51:30;;;;;;;21.25;9.38;;;;;;;2.71;94.89;99677.60;1703605;82;21188;-78
2022/10/22 05:54:00;;;;;;;15.90;10.10;;;;;;;2.74;94.82;99678.44;1690233;84;21010;-77
2022/10/22 05:56:30;;;;;;;21.42;10.05;;;;;;;2.77;94.85;99684.69;1689525;84;20920;-76
2022/10/22 05:58:57;;;;;;;17.62;8.23;;;;;;;2.81;94.81;99685.27;1688630;84;21083;-79
2022/10/22 06:01:27;;;;;;;21.48;8.00;;;;;;;2.86;94.72;99683.13;1696413;81;21083;-77
2022/10/22 06:03:59;;;;;;;29.30;8.78;;;;;;;2.91;94.56;99682.59;1696633;83;20923;-77
2022/10/22 06:06:33;;;;;;;19.50;8.65;;;;;;;3.01;94.83;99687.25;1688747;83;21039;-77
2022/10/22 06:09:21;;;;;;;19.37;8.13;;;;;;;3.15;94.38;99702.53;1682637;83;20924;-76
2022/10/22 06:11:49;;;;;;;16.75;8.10;;;;;;;3.30;94.59;99706.14;1688259;84;20899;-78
2022/10/22 06:14:17;;;;;;;18.32;7.95;;;;;;;3.51;93.52;99718.41;1695468;83;20987;-77
2022/10/22 06:16:44;;;;;;;15.48;7.87;;;;;;;3.65;92.69;99710.05;1689514;84;21175;-79
2022/10/22 06:19:12;;;;;;;22.60;9.08;;;;;;;3.80;92.94;99714.19;1698556;82;20888;-77
2022/10/22 06:21:38;;;;;;;23.00;8.88;;;;;;;3.94;92.43;99707.16;1696912;83;20948;-79
2022/10/22 06:24:06;;;;;;;17.27;8.40;;;;;;;4.10;92.23;99703.09;1701780;83;20979;-78
2022/10/22 06:26:33;;;;;;;19.05;7.72;;;;;;;4.28;91.98;99701.21;1688531;84;20935;-78
2022/10/22 06:29:00;;;;;;;13.05;6.53;;;;;;;4.83;88.17;99692.75;1688732;83;21213;-79
2022/10/22 06:31:27;;;;;;;12.95;6.95;;;;;;;4.83;88.17;99692.75;1699674;83;21025;-78
2022/10/22 06:33:56;;;;;;;19.57;6.65;;;;;;;4.96;87.88;99698.44;1695304;83;20907;-77
2022/10/22 06:36:23;;;;;;;17.10;7.35;;;;;;;5.10;87.26;99706.03;1705150;83;20944;-77
2022/10/22 06:38:54;;;;;;;18.15;8.15;;;;;;;5.19;86.34;99708.47;1687594;84;20939;-77
2022/10/22 06:41:21;;;;;;;18.48;8.33;;;;;;;5.25;86.27;99708.69;1710493;83;21138;-77
2022/10/22 06:43:47;;;;;;;17.48;7.40;;;;;;;5.42;86.03;99707.82;1688369;84;20951;-77
2022/10/22 06:46:18;;;;;;;12.85;6.05;;;;;;;5.61;85.23;99713.47;1688177;84;21030;-76
2022/10/22 06:48:52;;;;;;;13.88;6.15;;;;;;;5.74;84.03;99701.97;1688301;84;20939;-80
2022/10/22 06:51:24;;;;;;;22.32;6.00;;;;;;;5.75;83.22;99689.17;1703892;82;20920;-76
2022/10/22 06:53:48;;;;;;;19.60;5.90;;;;;;;5.75;83.22;99689.17;1713985;82;21611;-76
2022/10/22 06:56:18;;;;;;;16.15;6.45;;;;;;;5.79;84.06;99681.48;1693108;83;21501;-77
2022/10/22 06:58:50;;;;;;;14.85;5.60;;;;;;;5.84;83.51;99679.28;1707949;83;20946;-76
2022/10/22 07:01:20;;;;;;;17.62;6.40;;;;;;;5.91;83.20;99673.82;1723232;82;20974;-76
2022/10/22 07:03:49;;;;;;;13.75;6.10;;;;;;;5.92;82.82;99675.45;1673312;83;21529;-74
2022/10/22 07:06:17;;;;;;;19.90;7.37;;;;;;;5.87;83.13;99668.64;1715822;82;21164;-74
2022/10/22 07:08:43;;;;;;;11.85;5.25;;;;;;;5.89;83.96;99667.84;1708124;82;20989;-74
2022/10/22 07:11:14;;;;;;;12.05;5.55;;;;;;;5.93;83.28;99676.27;1722627;83;20899;-77
2022/10/22 07:13:40;;;;;;;13.40;5.17;;;;;;;5.92;83.49;99679.53;1690402;84;21602;-77
2022/10/22 07:16:08;;;;;;;16.12;5.87;;;;;;;5.91;83.68;99681.18;1689146;84;20937;-79
2022/10/22 07:18:36;;;;;;;12.03;5.53;;;;;;;5.86;83.20;99687.98;1675485;84;21151;-73
2022/10/22 07:21:03;;;;;;;14.25;5.83;;;;;;;5.84;83.25;99688.81;1722417;83;20966;-71
2022/10/22 07:23:31;;;;;;;12.93;6.03;;;;;;;5.78;83.67;99700.29;1692509;83;20936;-79
2022/10/22 07:25:58;;;;;;;12.63;6.35;;;;;;;5.75;83.89;99688.63;1693354;84;20943;-72
2022/10/22 07:28:24;;;;;;;12.20;7.12;;;;;;;5.75;83.89;99688.63;1686854;84;20963;-78
2022/10/22 07:30:51;;;;;;;19.35;8.75;;;;;;;5.74;84.23;99688.35;1682726;83;21126;-76
2022/10/22 07:33:18;;;;;;;17.40;8.53;;;;;;;5.74;84.44;99694.34;1684582;84;20905;-75
2022/10/22 07:35:45;;;;;;;17.07;7.58;;;;;;;5.76;84.42;99693.52;1679799;84;20962;-75
2022/10/22 07:38:12;;;;;;;18.50;8.00;;;;;;;5.76;84.96;99691.61;1679409;85;20918;-69
2022/10/22 07:40:39;;;;;;;15.90;8.20;;;;;;;5.78;85.09;99688.03;1680376;84;20933;-71
2022/10/22 07:43:05;;;;;;;16.67;7.97;;;;;;;5.82;85.26;99693.73;1679353;84;21199;-72
2022/10/22 07:45:33;;;;;;;17.00;8.95;;;;;;;5.83;85.25;99696.72;1680698;84;21170;-70
2022/10/22 07:48:00;;;;;;;19.15;9.30;;;;;;;5.86;85.66;99695.61;1681451;84;20995;-68
2022/10/22 07:50:27;;;;;;;16.57;8.28;;;;;;;5.91;86.11;99694.80;1681446;85;20995;-68
2022/10/22 07:52:54;;;;;;;23.07;8.90;;;;;;;5.96;86.01;99697.50;1649132;85;21082;-70
2022/10/22 07:55:20;;;;;;;14.75;8.25;;;;;;;6.03;86.07;99695.28;1687401;84;21107;-72
2022/10/22 07:57:48;;;;;;;15.25;8.68;;;;;;;6.08;85.83;99691.70;1673519;84;21075;-70
2022/10/22 08:00:15;;;;;;;16.37;6.78;;;;;;;6.12;85.92;99691.41;1649855;85;20971;-71
2022/10/22 08:02:44;;;;;;;12.90;6.22;;;;;;;6.16;85.86;99682.94;1655842;84;20978;-72
2022/10/22 08:05:12;;;;;;;9.95;6.05;;;;;;;6.18;85.49;99684.83;1658010;84;21440;-70
2022/10/22 08:07:41;;;;;;;9.58;5.33;;;;;;;6.19;85.48;99689.19;1659258;84;21808;-73
2022/10/22 08:10:09;;;;;;;11.68;5.92;;;;;;;6.18;85.32;99692.45;1682145;85;20904;-78
2022/10/22 08:12:36;;;;;;;15.63;6.70;;;;;;;6.18;85.40;99687.55;1681397;85;20904;-75
2022/10/22 08:15:07;;;;;;;22.75;8.93;;;;;;;6.17;85.52;99685.38;1681562;84;21644;-74
2022/10/22 08:17:33;;;;;;;13.93;6.17;;;;;;;6.19;85.91;99693.27;1647988;84;21048;-76
2022/10/22 08:20:00;;;;;;;17.77;8.78;;;;;;;6.21;85.65;99691.89;1660366;85;21857;-74
2022/10/22 08:22:27;;;;;;;13.68;7.37;;;;;;;6.21;85.82;99674.17;1678618;85;21566;-77
2022/10/22 08:24:53;;;;;;;11.73;6.33;;;;;;;6.21;85.75;99676.08;1681448;85;21415;-75
2022/10/22 08:27:20;;;;;;;14.53;6.05;;;;;;;6.21;85.77;99673.36;1666311;84;21008;-74
2022/10/22 08:29:46;;;;;;;10.98;5.30;;;;;;;6.25;86.38;99664.88;1702588;83;21109;-74
2022/10/22 08:32:12;;;;;;;11.18;6.87;;;;;;;6.31;86.32;99661.56;1689059;84;21713;-76
2022/10/22 08:34:39;;;;;;;13.93;6.90;;;;;;;6.33;86.26;99650.64;1708317;83;20880;-72
2022/10/22 08:37:07;;;;;;;14.00;6.17;;;;;;;6.37;86.03;99648.94;1689165;84;20924;-74
2022/10/22 08:39:33;;;;;;;15.68;6.67;;;;;;;6.37;86.03;99648.94;1689151;84;20991;-75
2022/10/22 08:42:47;;;;;;;10.68;6.03;;;;;;;6.37;86.28;99643.48;1699933;83;20939;-74
2022/10/22 08:45:24;;;;;;;10.40;5.58;;;;;;;6.39;86.21;99653.55;1703580;81;21865;-76
2022/10/22 08:48:22;;;;;;;10.58;5.10;;;;;;;6.40;86.38;99659.28;1719962;82;21431;-76
2022/10/22 08:50:51;;;;;;;14.15;6.65;;;;;;;6.50;86.55;99661.92;1687491;84;21440;-75
2022/10/22 08:53:22;;;;;;;11.22;6.05;;;;;;;6.50;86.55;99661.92;1687672;84;21511;-76
2022/10/22 08:55:49;;;;;;;13.62;6.95;;;;;;;6.54;86.29;99671.70;1674142;84;20903;-70
2022/10/22 08:58:49;;;;;;;15.38;7.33;;;;;;;6.57;86.43;99669.22;1660633;84;21549;-70
2022/10/22 09:01:36;;;;;;;11.68;5.60;;;;;;;6.65;86.40;99660.97;1646726;85;21061;-74
2022/10/22 09:04:30;;;;;;;13.40;5.75;;;;;;;6.74;86.37;99657.89;1642561;85;21074;-73
2022/10/22 09:06:57;;;;;;;15.00;5.70;;;;;;;6.83;86.24;99648.53;1727058;82;21047;-73
2022/10/22 09:09:33;;;;;;;10.65;6.00;;;;;;;6.87;86.05;99636.75;1703398;82;20955;-83
2022/10/22 09:12:03;;;;;;;10.08;6.28;;;;;;;6.89;86.19;99624.99;1705448;82;21172;-73
2022/10/22 09:14:30;;;;;;;22.70;6.62;;;;;;;6.97;87.46;99639.89;1678181;84;20907;-72
2022/10/22 09:17:26;;;;;;;16.17;5.85;;;;;;;7.05;86.51;99655.63;1627721;86;20985;-77
2022/10/22 09:20:31;;;;;;;10.98;5.00;;;;;;;7.12;86.19;99650.64;1672928;85;20964;-78
2022/10/22 09:23:41;;;;;;;15.53;6.45;;;;;;;7.19;85.73;99632.55;1722915;82;20943;-77
2022/10/22 09:26:14;;;;;;;12.50;5.85;;;;;;;7.22;85.25;99619.13;1690538;84;21285;-71
2022/10/22 09:28:42;;;;;;;10.82;5.92;;;;;;;7.25;85.50;99618.55;1688070;84;38343;-79
2022/10/22 09:31:14;;;;;;;14.25;5.55;;;;;;;7.28;85.36;99613.05;1685727;84;21031;-79
2022/10/22 09:33:42;;;;;;;14.93;5.83;;;;;;;7.29;85.48;99593.64;1688583;84;21003;-81
2022/10/22 09:36:17;;;;;;;14.63;6.30;;;;;;;7.33;85.35;99588.97;1657607;85;20903;-80
2022/10/22 09:38:49;;;;;;;16.90;6.78;;;;;;;7.36;85.51;99589.74;1722951;81;21237;-81
2022/10/22 09:41:17;;;;;;;11.30;6.53;;;;;;;7.39;85.50;99589.97;1708651;83;20974;-78
2022/10/22 09:43:46;;;;;;;13.22;6.67;;;;;;;7.44;85.07;99602.75;1690693;84;21030;-78
2022/10/22 09:46:19;;;;;;;13.10;6.15;;;;;;;7.47;84.81;99614.45;1722825;82;20946;-78
2022/10/22 09:48:59;;;;;;;13.18;5.97;;;;;;;7.50;84.66;99612.50;1691264;83;21007;-78
2022/10/22 09:51:57;;;;;;;22.10;8.68;;;;;;;7.54;85.18;99603.39;1688421;84;21069;-71
2022/10/22 09:54:35;;;;;;;15.18;6.65;;;;;;;7.63;84.73;99594.80;1717622;83;20967;-73
2022/10/22 09:57:20;;;;;;;9.93;5.20;;;;;;;7.71;85.05;99586.49;1715902;82;20942;-73
2022/10/22 09:59:49;;;;;;;17.02;6.35;;;;;;;7.81;85.12;99571.31;1687184;84;20944;-72
2022/10/22 10:02:22;;;;;;;10.35;6.17;;;;;;;7.90;84.23;99569.53;1687576;84;20940;-71
2022/10/22 10:04:53;;;;;;;9.43;5.53;;;;;;;7.99;84.27;99590.17;1688408;84;21160;-72
2022/10/22 10:07:25;;;;;;;13.78;6.97;;;;;;;8.05;83.50;99597.19;1705869;82;20953;-70
2022/10/22 10:09:54;;;;;;;14.00;6.37;;;;;;;8.13;83.54;99592.94;1687414;84;21446;-72
2022/10/22 10:12:53;;;;;;;19.00;6.20;;;;;;;8.23;83.43;99596.31;1661972;86;20880;-70
2022/10/22 10:15:41;;;;;;;13.68;7.12;;;;;;;8.34;83.60;99599.73;1688138;84;20940;-71
2022/10/22 10:18:55;;;;;;;15.35;7.12;;;;;;;8.51;83.27;99599.98;1688556;83;21585;-71
2022/10/22 10:21:49;;;;;;;13.68;5.97;;;;;;;8.64;82.42;99596.20;1688790;84;20896;-73
2022/10/22 10:24:45;;;;;;;11.30;6.37;;;;;;;8.75;82.15;99593.50;1670232;84;21087;-73
2022/10/22 10:27:18;;;;;;;13.72;6.40;;;;;;;8.85;82.07;99590.58;1687296;84;20936;-71
2022/10/22 10:30:19;;;;;;;14.23;6.42;;;;;;;8.93;81.49;99599.45;1685754;84;20980;-72
2022/10/22 10:33:45;;;;;;;11.70;5.87;;;;;;;9.00;80.98;99597.13;1662090;84;20857;-70
2022/10/22 10:36:22;;;;;;;10.45;5.37;;;;;;;9.06;80.29;99590.44;1689682;84;20956;-74
2022/10/22 10:39:15;;;;;;;12.37;6.17;;;;;;;9.08;79.76;99579.98;1680853;84;21004;-72
2022/10/22 10:42:03;;;;;;;12.28;5.62;;;;;;;9.11;80.25;99572.53;1671772;84;20962;-72
2022/10/22 10:44:58;;;;;;;11.93;5.53;;;;;;;9.18;80.14;99574.30;1689221;84;20931;-72
2022/10/22 10:47:39;;;;;;;10.85;6.22;;;;;;;9.28;79.50;99574.06;1693684;82;21518;-74
2022/10/22 10:50:29;;;;;;;15.70;6.37;;;;;;;9.35;79.66;99564.62;1712047;82;20986;-71
2022/10/22 10:53:22;;;;;;;15.10;6.42;;;;;;;9.44;79.42;99553.19;1700125;83;20951;-71
2022/10/22 10:56:06;;;;;;;12.93;6.10;;;;;;;9.56;79.27;99558.95;1713334;81;21462;-72
2022/10/22 10:59:00;;;;;;;10.55;5.47;;;;;;;9.66;78.27;99550.49;1689744;83;21159;-69
2022/10/22 11:01:56;;;;;;;14.50;5.97;;;;;;;9.74;78.09;99553.05;1706882;82;21156;-70
2022/10/22 11:04:47;;;;;;;11.70;5.90;;;;;;;9.79;77.98;99551.57;1712962;82;21057;-70
2022/10/22 11:07:21;;;;;;;10.35;5.70;;;;;;;9.88;76.89;99548.31;1709645;82;20983;-68
2022/10/22 11:10:00;;;;;;;10.13;5.62;;;;;;;9.96;75.69;99544.01;1707223;82;20938;-71
2022/10/22 11:12:33;;;;;;;16.17;5.97;;;;;;;10.00;75.67;99543.08;1730773;82;20923;-70
2022/10/22 11:15:25;;;;;;;10.43;5.50;;;;;;;10.07;75.31;99537.16;1737476;82;20904;-70
2022/10/22 11:17:53;;;;;;;13.65;6.20;;;;;;;10.12;75.62;99543.33;1738866;82;20981;-70
2022/10/22 11:20:37;;;;;;;11.60;5.90;;;;;;;10.20;74.93;99528.08;1735603;82;20911;-72
2022/10/22 11:23:10;;;;;;;10.23;6.45;;;;;;;10.25;74.50;99529.32;1737766;82;20955;-70
2022/10/22 11:25:42;;;;;;;11.33;5.72;;;;;;;10.30;74.62;99528.37;1737161;82;20994;-70
2022/10/22 11:28:17;;;;;;;12.18;6.08;;;;;;;10.35;74.27;99520.02;1734802;82;21988;-73
2022/10/22 11:30:47;;;;;;;10.82;6.53;;;;;;;10.40;73.29;99508.91;1736494;82;21577;-77
2022/10/22 11:33:21;;;;;;;9.08;5.55;;;;;;;10.43;72.60;99506.30;1740369;82;20903;-74
2022/10/22 11:35:48;;;;;;;14.23;6.08;;;;;;;10.44;72.13;99505.18;1731371;81;20935;-72
2022/10/22 11:38:20;;;;;;;12.95;6.35;;;;;;;10.47;72.21;99504.55;1733127;82;20934;-71
2022/10/22 11:40:51;;;;;;;9.75;5.92;;;;;;;10.54;72.18;99496.67;1740663;82;21292;-69
2022/10/22 11:43:30;;;;;;;13.18;6.17;;;;;;;10.67;71.72;99497.70;1740165;82;20888;-68
2022/10/22 11:46:02;;;;;;;16.57;6.30;;;;;;;10.78;72.00;99502.34;1734115;82;20926;-73
2022/10/22 11:48:35;;;;;;;10.30;6.25;;;;;;;10.87;71.41;99493.00;1735428;82;20935;-72
2022/10/22 11:51:02;;;;;;;9.03;5.35;;;;;;;10.99;71.09;99509.41;1738482;81;20911;-74
2022/10/22 11:53:37;;;;;;;14.35;6.17;;;;;;;11.05;70.17;99510.31;1743808;82;21730;-70
2022/10/22 11:56:11;;;;;;;9.98;5.97;;;;;;;11.08;70.13;99512.42;1739311;82;20927;-72